Time;durP1;ratioP1;P1;durP2;ratioP2;P2;SDS_P1;SDS_P2;PMS_P1;PMS_P2;Temp;Humidity;BMP_temperature;BMP_pressure;BME280_temperature;BME280_humidity;BME280_pressure;Samples;Min_cycle;Max_cycle;Signal;HPM_P1;HPM_P2
2022/07/09 00:00:54;;;;;;;5.83;3.12;;;;;;;16.51;78.37;101205.56;1758099;80;25717;-87
2022/07/09 00:03:20;;;;;;;7.53;3.50;;;;;;;16.53;78.50;101202.13;1753855;80;25469;-83
2022/07/09 00:05:47;;;;;;;10.50;3.75;;;;;;;16.53;78.29;101196.72;1751916;80;25306;-85
2022/07/09 00:08:13;;;;;;;7.80;3.15;;;;;;;16.55;78.25;101194.62;1769913;79;27457;-84
2022/07/09 00:10:39;;;;;;;5.53;2.92;;;;;;;16.55;78.16;101197.33;1761676;80;25732;-84
2022/07/09 00:13:06;;;;;;;6.70;2.98;;;;;;;16.56;78.29;101198.17;1763559;78;25906;-84
2022/07/09 00:15:32;;;;;;;5.92;3.08;;;;;;;16.56;78.21;101200.88;1758366;80;25836;-86
2022/07/09 00:17:59;;;;;;;5.45;2.90;;;;;;;16.53;78.12;101201.31;1772544;80;25943;-85
2022/07/09 00:20:25;;;;;;;7.05;3.00;;;;;;;16.51;78.14;101205.56;1771031;78;27460;-83
2022/07/09 00:22:51;;;;;;;9.88;3.52;;;;;;;16.48;78.04;101200.56;1774578;78;25908;-87
2022/07/09 00:25:18;;;;;;;8.15;3.02;;;;;;;16.48;78.00;101200.56;1771805;78;25838;-85
2022/07/09 00:27:44;;;;;;;8.08;2.77;;;;;;;16.46;77.93;101200.45;1772369;78;26257;-84
2022/07/09 00:30:11;;;;;;;6.90;3.27;;;;;;;16.41;77.86;101206.48;1778722;78;25784;-85
2022/07/09 00:32:37;;;;;;;5.40;2.75;;;;;;;16.39;77.96;101203.68;1777916;78;27463;-84
2022/07/09 00:35:04;;;;;;;7.90;3.10;;;;;;;16.36;77.93;101204.92;1775855;79;26203;-84
2022/07/09 00:37:31;;;;;;;5.78;3.10;;;;;;;16.36;78.05;101208.17;1754387;79;25856;-85
2022/07/09 00:39:57;;;;;;;4.87;2.55;;;;;;;16.34;77.99;101209.71;1761176;80;25932;-85
2022/07/09 00:42:24;;;;;;;6.50;2.62;;;;;;;16.32;78.05;101206.90;1764175;80;25938;-87
2022/07/09 00:44:51;;;;;;;4.67;2.33;;;;;;;16.28;77.96;101212.42;1770768;78;28297;-83
2022/07/09 00:47:18;;;;;;;4.47;2.70;;;;;;;16.22;77.95;101211.39;1766293;78;25925;-86
2022/07/09 00:49:44;;;;;;;6.35;2.50;;;;;;;16.19;77.84;101214.50;1757866;78;25729;-85
2022/07/09 00:52:14;;;;;;;5.28;2.65;;;;;;;16.14;77.80;101213.77;1766337;80;25749;-85
2022/07/09 00:54:41;;;;;;;6.47;2.40;;;;;;;16.14;77.80;101207.02;1768859;78;25858;-86
2022/07/09 00:57:09;;;;;;;5.97;2.55;;;;;;;16.11;77.75;101203.39;1767801;78;27472;-85
2022/07/09 00:59:38;;;;;;;4.85;2.37;;;;;;;16.06;77.65;101205.03;1773131;78;25739;-85
2022/07/09 01:02:08;;;;;;;5.67;2.33;;;;;;;16.02;77.73;101203.79;1774100;79;25299;-85
2022/07/09 01:04:34;;;;;;;26.30;12.43;;;;;;;16.01;77.89;101200.28;1789896;77;26326;-86
2022/07/09 01:07:01;;;;;;;24.92;10.23;;;;;;;15.97;77.81;101194.95;1770264;80;25676;-84
2022/07/09 01:09:28;;;;;;;9.33;3.77;;;;;;;15.93;77.85;101194.25;1765309;80;27424;-84
2022/07/09 01:11:56;;;;;;;8.08;2.75;;;;;;;15.93;77.92;101191.55;1799023;79;25956;-85
2022/07/09 01:14:22;;;;;;;8.45;2.47;;;;;;;15.89;77.96;101199.73;1760949;78;26150;-84
2022/07/09 01:17:02;;;;;;;5.08;2.08;;;;;;;15.86;78.07;101198.30;1767347;78;25630;-85
2022/07/09 01:19:30;;;;;;;11.53;4.85;;;;;;;15.83;78.08;101192.45;1764240;78;25280;-84
2022/07/09 01:21:57;;;;;;;9.13;3.45;;;;;;;15.79;78.17;101186.64;1769399;80;28255;-85
2022/07/09 01:24:26;;;;;;;7.40;2.50;;;;;;;15.76;78.15;101188.39;1757857;78;26381;-86
2022/07/09 01:26:54;;;;;;;6.37;2.17;;;;;;;15.72;78.31;101185.80;1755786;80;25821;-85
2022/07/09 01:29:21;;;;;;;5.75;2.47;;;;;;;15.66;78.16;101192.53;1766588;80;26516;-85
2022/07/09 01:31:48;;;;;;;12.05;2.37;;;;;;;15.64;78.27;101195.96;1761600;80;25974;-86
2022/07/09 01:34:14;;;;;;;9.48;2.92;;;;;;;15.60;78.21;101192.02;1754893;80;27963;-85
2022/07/09 01:36:40;;;;;;;4.90;2.15;;;;;;;15.55;78.33;101191.27;1758225;80;25316;-84
2022/07/09 01:39:06;;;;;;;4.70;2.80;;;;;;;15.56;78.38;101196.16;1757727;80;25843;-83
2022/07/09 01:41:33;;;;;;;5.83;2.70;;;;;;;15.53;78.26;101191.16;1770346;80;26016;-84
2022/07/09 01:43:59;;;;;;;7.25;2.55;;;;;;;15.50;78.25;101192.94;1774564;80;25820;-85
2022/07/09 01:46:25;;;;;;;8.93;2.45;;;;;;;15.49;78.19;101188.55;1769287;78;27440;-85
2022/07/09 01:48:52;;;;;;;7.10;2.98;;;;;;;15.46;78.11;101196.57;1761741;80;25841;-84
2022/07/09 01:51:18;;;;;;;6.83;2.80;;;;;;;15.41;78.07;101197.66;1771420;80;25971;-85
2022/07/09 01:53:45;;;;;;;12.50;6.60;;;;;;;15.35;78.18;101191.19;1755519;80;25991;-85
2022/07/09 01:56:12;;;;;;;10.28;4.62;;;;;;;15.36;78.23;101196.08;1767222;78;25287;-84
2022/07/09 01:58:38;;;;;;;6.85;3.35;;;;;;;15.36;78.25;101192.02;1762373;80;28338;-85
2022/07/09 02:01:05;;;;;;;11.70;2.98;;;;;;;15.32;78.17;101195.66;1769113;78;25951;-85
2022/07/09 02:03:31;;;;;;;8.58;2.55;;;;;;;15.27;78.04;101195.42;1760146;80;25800;-85
2022/07/09 02:05:57;;;;;;;9.38;2.67;;;;;;;15.24;78.17;101191.80;1768805;77;25957;-84
2022/07/09 02:08:25;;;;;;;5.03;2.90;;;;;;;15.18;78.05;101196.63;1769153;78;25925;-84
2022/07/09 02:10:51;;;;;;;5.25;2.90;;;;;;;15.13;78.22;101197.78;1778015;78;27407;-84
2022/07/09 02:13:19;;;;;;;7.20;3.50;;;;;;;15.06;78.16;101193.37;1772008;79;25721;-85
2022/07/09 02:15:45;;;;;;;13.53;3.27;;;;;;;15.03;78.36;101195.14;1773814;78;25816;-86
2022/07/09 02:18:12;;;;;;;7.33;2.47;;;;;;;15.02;78.49;101196.16;1764563;78;25823;-84
2022/07/09 02:20:38;;;;;;;12.60;3.00;;;;;;;14.98;78.64;101186.80;1750977;80;25911;-83
2022/07/09 02:23:05;;;;;;;5.87;2.65;;;;;;;14.93;78.66;101182.01;1758622;79;28390;-83
2022/07/09 02:25:31;;;;;;;6.67;3.08;;;;;;;14.92;78.84;101176.83;1767891;80;26001;-83
2022/07/09 02:27:57;;;;;;;8.60;3.30;;;;;;;14.86;78.84;101177.62;1759184;79;26493;-84
2022/07/09 02:30:24;;;;;;;9.50;3.62;;;;;;;14.85;78.90;101175.44;1748140;80;26400;-83
2022/07/09 02:32:50;;;;;;;8.45;3.45;;;;;;;14.85;79.13;101176.80;1761469;80;26023;-84
2022/07/09 02:35:17;;;;;;;8.23;2.80;;;;;;;14.79;79.00;101174.06;1751144;80;27464;-84
2022/07/09 02:37:43;;;;;;;9.93;3.52;;;;;;;14.76;79.15;101177.14;1764630;79;26330;-84
2022/07/09 02:40:11;;;;;;;9.50;3.22;;;;;;;14.79;79.27;101178.11;1756556;80;25883;-84
2022/07/09 02:42:38;;;;;;;5.30;2.72;;;;;;;14.81;79.27;101178.73;1769067;80;25825;-83
2022/07/09 02:45:06;;;;;;;6.58;3.45;;;;;;;14.77;79.20;101175.62;1749543;80;26354;-84
2022/07/09 02:47:32;;;;;;;10.68;3.58;;;;;;;14.78;79.47;101173.22;1764146;79;28324;-85
2022/07/09 02:49:59;;;;;;;7.05;3.08;;;;;;;14.78;79.61;101167.83;1752098;80;26413;-83
2022/07/09 02:52:25;;;;;;;8.55;3.22;;;;;;;14.75;79.70;101169.59;1759585;80;25746;-84
2022/07/09 02:54:51;;;;;;;7.50;3.15;;;;;;;14.75;79.97;101164.71;1757938;80;25991;-84
2022/07/09 02:57:18;;;;;;;9.95;4.03;;;;;;;14.72;79.92;101162.40;1759843;79;25829;-83
2022/07/09 02:59:44;;;;;;;16.73;6.60;;;;;;;14.75;80.09;101164.71;1763616;80;28314;-84
2022/07/09 03:02:11;;;;;;;7.20;3.50;;;;;;;14.73;80.01;101164.08;1761213;80;26586;-84
2022/07/09 03:04:37;;;;;;;7.75;3.15;;;;;;;14.70;79.96;101165.30;1749800;80;25783;-83
2022/07/09 03:07:04;;;;;;;8.35;6.22;;;;;;;14.67;80.08;101160.30;1766851;79;25460;-84
2022/07/09 03:09:30;;;;;;;7.12;4.35;;;;;;;14.65;80.23;101163.71;1756913;80;25808;-84
2022/07/09 03:11:56;;;;;;;6.78;4.15;;;;;;;14.64;80.32;101164.25;1752113;80;27453;-83
2022/07/09 03:14:23;;;;;;;6.70;4.22;;;;;;;14.61;80.56;101168.68;1765847;80;25852;-82
2022/07/09 03:16:49;;;;;;;8.13;3.58;;;;;;;14.60;80.71;101162.15;1795057;79;25746;-84
2022/07/09 03:19:15;;;;;;;9.03;3.50;;;;;;;14.64;80.98;101152.63;1775912;80;25802;-83
2022/07/09 03:21:42;;;;;;;12.45;3.50;;;;;;;14.67;81.00;101153.05;1777253;78;25884;-84
2022/07/09 03:24:09;;;;;;;7.67;3.00;;;;;;;14.70;81.16;101158.56;1759431;80;27460;-85
2022/07/09 03:26:36;;;;;;;9.65;3.33;;;;;;;14.74;81.14;101157.63;1759964;80;25955;-85
2022/07/09 03:29:02;;;;;;;7.55;3.47;;;;;;;14.77;81.29;101164.83;1750437;80;25822;-84
2022/07/09 03:31:28;;;;;;;11.10;3.20;;;;;;;14.80;81.51;101159.56;1780399;80;25835;-85
2022/07/09 03:33:55;;;;;;;5.10;2.40;;;;;;;14.82;81.65;101152.09;1766418;78;25838;-84
2022/07/09 03:36:21;;;;;;;7.05;2.80;;;;;;;14.83;81.77;101157.28;1753902;80;27447;-86
2022/07/09 03:38:47;;;;;;;9.23;2.72;;;;;;;14.85;81.83;101149.81;1762874;78;25882;-85
2022/07/09 03:41:13;;;;;;;7.45;2.87;;;;;;;14.85;81.92;101148.47;1760906;80;25769;-85
2022/07/09 03:43:40;;;;;;;6.25;2.70;;;;;;;14.82;82.31;101148.86;1768285;78;25776;-85
2022/07/09 03:46:06;;;;;;;9.95;3.27;;;;;;;14.86;82.56;101156.89;1760033;80;25852;-84
2022/07/09 03:48:34;;;;;;;8.00;3.70;;;;;;;14.89;82.83;101147.03;1752771;80;28277;-85
2022/07/09 03:51:00;;;;;;;6.40;3.10;;;;;;;14.91;82.94;101145.47;1753277;78;26160;-84
2022/07/09 03:53:27;;;;;;;8.38;3.00;;;;;;;14.93;83.02;101144.75;1754064;80;25864;-84
2022/07/09 03:55:53;;;;;;;7.20;3.17;;;;;;;14.98;83.34;101143.64;1758298;78;25780;-84
2022/07/09 03:58:19;;;;;;;3.98;3.02;;;;;;;15.01;83.40;101144.59;1749839;80;25946;-84
2022/07/09 04:00:46;;;;;;;7.22;2.90;;;;;;;15.06;83.64;101134.01;1758165;78;28061;-84
2022/07/09 04:03:12;;;;;;;12.33;3.30;;;;;;;15.13;83.70;101141.11;1760310;80;25303;-82
2022/07/09 04:05:39;;;;;;;8.00;3.10;;;;;;;15.18;83.97;101143.20;1768947;78;26065;-84
2022/07/09 04:08:05;;;;;;;5.78;2.75;;;;;;;15.20;83.77;101145.17;1748794;80;25768;-84
2022/07/09 04:10:31;;;;;;;5.58;3.25;;;;;;;15.28;84.13;101140.42;1757361;78;26246;-84
2022/07/09 04:12:58;;;;;;;8.03;3.20;;;;;;;15.37;84.25;101143.25;1752647;80;27448;-85
2022/07/09 04:15:24;;;;;;;5.12;3.12;;;;;;;15.41;84.17;101140.45;1753893;80;26234;-84
2022/07/09 04:17:50;;;;;;;4.92;3.52;;;;;;;15.44;83.77;101137.36;1774765;79;25813;-83
2022/07/09 04:20:17;;;;;;;9.53;3.42;;;;;;;15.47;83.77;101138.82;1760910;80;25924;-84
2022/07/09 04:22:43;;;;;;;6.17;3.00;;;;;;;15.50;83.86;101136.23;1748637;80;25899;-84
2022/07/09 04:25:09;;;;;;;4.85;2.98;;;;;;;15.50;83.72;101142.98;1744791;80;27459;-84
2022/07/09 04:27:38;;;;;;;7.80;4.42;;;;;;;15.47;83.50;101139.33;1751612;80;26356;-83
2022/07/09 04:30:06;;;;;;;5.85;3.15;;;;;;;15.42;83.55;101144.80;1751865;80;25858;-84
2022/07/09 04:32:32;;;;;;;8.93;3.40;;;;;;;15.40;83.85;101137.94;1752125;80;25772;-84
2022/07/09 04:34:59;;;;;;;8.73;3.20;;;;;;;15.40;83.79;101140.64;1739605;81;25831;-84
2022/07/09 04:37:25;;;;;;;6.33;3.92;;;;;;;15.42;83.95;101137.21;1791288;79;28871;-83
2022/07/09 04:39:51;;;;;;;7.45;3.30;;;;;;;15.40;83.75;101144.17;1760777;80;25776;-84
2022/07/09 04:42:19;;;;;;;6.50;3.58;;;;;;;15.40;84.00;101150.92;1745384;80;26451;-84
2022/07/09 04:44:46;;;;;;;7.03;3.40;;;;;;;15.44;84.50;101148.67;1752204;80;25911;-84
2022/07/09 04:47:12;;;;;;;8.33;3.20;;;;;;;15.48;84.71;101146.41;1743794;80;25865;-85
2022/07/09 04:49:39;;;;;;;10.35;3.20;;;;;;;15.54;85.00;101145.07;1754199;80;27501;-84
2022/07/09 04:52:06;;;;;;;6.87;3.33;;;;;;;15.62;85.52;101136.77;1747227;80;25908;-84
2022/07/09 04:54:33;;;;;;;7.95;4.15;;;;;;;15.72;85.31;101138.53;1753353;80;25833;-84
2022/07/09 04:56:59;;;;;;;7.33;3.42;;;;;;;15.81;85.18;101139.99;1748579;81;25875;-83
2022/07/09 04:59:25;;;;;;;7.87;3.60;;;;;;;15.89;85.27;101138.94;1769317;80;25978;-85
2022/07/09 05:01:52;;;;;;;7.42;3.87;;;;;;;15.94;85.07;101140.00;1760564;80;27438;-84
2022/07/09 05:04:18;;;;;;;5.62;4.10;;;;;;;15.94;84.88;101134.59;1753437;81;25835;-85
2022/07/09 05:06:44;;;;;;;7.45;3.65;;;;;;;15.96;85.02;101133.02;1764438;79;25821;-85
2022/07/09 05:09:10;;;;;;;9.18;3.83;;;;;;;15.96;84.92;101134.38;1752941;81;25738;-85
2022/07/09 05:11:37;;;;;;;5.67;3.70;;;;;;;15.96;85.04;101134.38;1777017;79;26714;-84
2022/07/09 05:14:03;;;;;;;6.78;3.47;;;;;;;16.02;85.19;101130.31;1788908;78;27458;-85
2022/07/09 05:16:29;;;;;;;8.23;3.72;;;;;;;16.08;85.69;101136.77;1766080;78;25951;-83
2022/07/09 05:18:56;;;;;;;9.60;4.17;;;;;;;16.08;85.48;101135.42;1762565;78;25831;-84
2022/07/09 05:21:22;;;;;;;6.00;3.52;;;;;;;16.10;85.37;101137.39;1770587;80;26362;-84
2022/07/09 05:23:48;;;;;;;5.62;3.35;;;;;;;16.09;85.40;101133.86;1759224;80;25806;-85
2022/07/09 05:26:14;;;;;;;8.58;4.17;;;;;;;16.10;85.48;101138.20;1754476;80;27456;-85
2022/07/09 05:28:41;;;;;;;7.12;3.98;;;;;;;16.16;85.91;101133.84;1749123;80;25921;-85
2022/07/09 05:31:07;;;;;;;5.55;3.27;;;;;;;16.14;85.54;101131.87;1753187;80;25839;-86
2022/07/09 05:33:34;;;;;;;6.92;3.58;;;;;;;16.17;85.85;101129.58;1753029;80;26176;-85
2022/07/09 05:36:00;;;;;;;8.28;3.67;;;;;;;16.20;85.87;101122.92;1749852;80;25800;-84
2022/07/09 05:38:26;;;;;;;8.45;3.85;;;;;;;16.25;85.90;101124.48;1776561;79;28202;-85
2022/07/09 05:40:52;;;;;;;5.78;3.58;;;;;;;16.32;86.24;101128.50;1756807;80;25788;-85
2022/07/09 05:43:21;;;;;;;4.70;3.52;;;;;;;16.33;85.83;101123.41;1765461;80;26074;-86
2022/07/09 05:45:47;;;;;;;7.20;3.42;;;;;;;16.35;85.87;101124.03;1757920;80;25547;-84
2022/07/09 05:48:13;;;;;;;6.97;3.45;;;;;;;16.38;86.19;101118.22;1765200;79;25829;-85
2022/07/09 05:50:39;;;;;;;6.22;2.90;;;;;;;16.42;85.94;101122.16;1763914;80;27504;-85
2022/07/09 05:53:06;;;;;;;6.75;3.65;;;;;;;16.46;86.05;101118.81;1758697;80;26597;-85
2022/07/09 05:55:32;;;;;;;5.30;3.30;;;;;;;16.50;85.97;101121.44;1753051;80;25322;-84
2022/07/09 05:57:58;;;;;;;6.28;3.00;;;;;;;16.52;85.63;101118.51;1762427;80;25643;-84
2022/07/09 06:00:25;;;;;;;6.47;2.98;;;;;;;16.56;86.17;101111.63;1753651;80;25869;-84
2022/07/09 06:02:51;;;;;;;4.62;2.98;;;;;;;16.62;85.65;101110.25;1753408;80;27500;-86
2022/07/09 06:05:19;;;;;;;10.80;3.50;;;;;;;16.69;85.62;101111.06;1758520;80;25832;-86
2022/07/09 06:07:46;;;;;;;5.42;3.20;;;;;;;16.77;85.64;101105.92;1750032;80;25737;-86
2022/07/09 06:10:14;;;;;;;6.50;3.42;;;;;;;16.82;85.60;101106.95;1762609;79;26277;-85
2022/07/09 06:12:42;;;;;;;5.45;3.75;;;;;;;16.86;85.19;101098.72;1754396;80;25833;-85
2022/07/09 06:15:10;;;;;;;9.20;4.42;;;;;;;16.92;85.51;101093.78;1767601;80;27471;-84
2022/07/09 06:17:37;;;;;;;6.42;3.80;;;;;;;16.98;85.23;101090.20;1760427;80;25323;-84
2022/07/09 06:20:06;;;;;;;7.47;4.35;;;;;;;17.05;84.93;101088.82;1757361;80;25797;-85
2022/07/09 06:22:32;;;;;;;5.05;3.40;;;;;;;17.21;85.52;101090.20;1764902;80;25459;-85
2022/07/09 06:24:58;;;;;;;8.58;4.12;;;;;;;17.32;84.84;101084.09;1757259;80;25810;-84
2022/07/09 06:27:25;;;;;;;5.72;3.12;;;;;;;17.41;84.63;101084.09;1758030;79;28360;-85
2022/07/09 06:29:51;;;;;;;6.33;3.50;;;;;;;17.49;84.37;101077.89;1790460;79;25859;-87
2022/07/09 06:32:17;;;;;;;5.50;3.05;;;;;;;17.57;84.03;101072.77;1770670;80;25842;-84
2022/07/09 06:34:43;;;;;;;7.37;3.25;;;;;;;17.68;83.59;101080.19;1775435;80;25856;-86
2022/07/09 06:37:10;;;;;;;3.75;2.70;;;;;;;17.79;83.70;101073.22;1764199;78;25957;-84
2022/07/09 06:39:45;;;;;;;4.10;2.90;;;;;;;18.00;84.20;101077.70;1768497;78;28331;-84
2022/07/09 06:42:17;;;;;;;6.72;2.45;;;;;;;18.13;82.24;101074.87;1758950;78;25825;-86
2022/07/09 06:44:45;;;;;;;4.30;2.58;;;;;;;18.22;82.24;101071.34;1763269;78;25945;-85
2022/07/09 06:47:12;;;;;;;5.33;2.42;;;;;;;18.29;82.12;101067.48;1748958;80;25452;-84
2022/07/09 06:49:39;;;;;;;4.70;2.75;;;;;;;18.33;80.32;101064.61;1765390;78;25735;-86
2022/07/09 06:52:06;;;;;;;3.05;2.15;;;;;;;18.41;81.14;101063.50;1750939;80;27435;-85
2022/07/09 06:54:32;;;;;;;4.20;2.42;;;;;;;18.47;79.95;101059.91;1747617;80;25805;-85
2022/07/09 06:56:58;;;;;;;4.85;2.25;;;;;;;18.48;79.27;101054.25;1766207;80;25919;-84
2022/07/09 06:59:25;;;;;;;5.60;1.67;;;;;;;18.48;78.88;101057.48;1763935;80;25768;-85
2022/07/09 07:01:51;;;;;;;9.40;2.62;;;;;;;18.52;78.09;101051.89;1748657;80;25770;-83
2022/07/09 07:04:19;;;;;;;3.58;1.50;;;;;;;18.59;79.13;101049.94;1762917;80;27417;-84
2022/07/09 07:06:48;;;;;;;7.05;2.15;;;;;;;18.70;78.86;101059.19;1759399;78;25373;-83
2022/07/09 07:09:23;;;;;;;3.33;2.02;;;;;;;18.75;77.69;101052.56;1763643;80;25793;-85
2022/07/09 07:11:50;;;;;;;3.65;2.05;;;;;;;18.86;76.82;101049.08;1764248;78;25840;-85
2022/07/09 07:14:17;;;;;;;4.22;1.95;;;;;;;19.02;78.17;101041.10;1749074;80;25853;-86
2022/07/09 07:16:44;;;;;;;3.20;1.75;;;;;;;19.21;76.95;101045.41;1758399;80;27685;-84
2022/07/09 07:19:11;;;;;;;2.92;1.37;;;;;;;19.39;76.00;101047.78;1781514;79;26428;-86
2022/07/09 07:21:38;;;;;;;3.95;1.57;;;;;;;19.41;73.82;101035.62;1764981;78;25867;-85
2022/07/09 07:24:06;;;;;;;6.80;2.70;;;;;;;19.39;75.83;101038.27;1773015;78;25828;-84
2022/07/09 07:26:34;;;;;;;4.75;2.22;;;;;;;19.42;74.54;101033.75;1774644;78;25781;-85
2022/07/09 07:29:00;;;;;;;3.95;2.05;;;;;;;19.49;75.54;101031.72;1768959;79;27739;-85
2022/07/09 07:31:27;;;;;;;4.15;1.62;;;;;;;19.51;74.93;101040.47;1768597;80;25768;-84
2022/07/09 07:33:53;;;;;;;3.95;2.00;;;;;;;19.49;74.01;101029.01;1769341;80;25929;-85
2022/07/09 07:36:19;;;;;;;4.60;1.70;;;;;;;19.51;74.19;101030.95;1739528;79;25753;-85
2022/07/09 07:38:46;;;;;;;3.08;1.32;;;;;;;19.54;73.51;101030.50;1759118;78;26497;-86
2022/07/09 07:41:13;;;;;;;3.62;1.37;;;;;;;19.66;73.44;101025.89;1755664;80;28459;-80
2022/07/09 07:43:40;;;;;;;2.98;1.98;;;;;;;19.63;73.34;101017.67;1770598;78;25925;-83
2022/07/09 07:46:06;;;;;;;6.25;1.90;;;;;;;19.64;73.98;101022.06;1761011;80;25825;-82
2022/07/09 07:48:35;;;;;;;6.97;1.70;;;;;;;19.70;73.38;101026.55;1768554;78;25774;-83
2022/07/09 07:51:01;;;;;;;7.72;1.80;;;;;;;19.80;72.84;101021.34;1776047;79;25328;-83
2022/07/09 07:53:27;;;;;;;2.85;1.65;;;;;;;19.82;72.70;101030.08;1765459;78;27437;-83
2022/07/09 07:55:54;;;;;;;3.22;1.47;;;;;;;19.84;71.80;101026.63;1768098;78;25949;-83
2022/07/09 07:58:20;;;;;;;5.33;2.22;;;;;;;19.92;71.90;101025.42;1766718;78;25879;-82
2022/07/09 08:00:46;;;;;;;4.80;1.60;;;;;;;20.07;71.89;101020.33;1796350;77;25822;-83
2022/07/09 08:03:12;;;;;;;4.85;1.82;;;;;;;20.23;71.64;101022.33;1772677;78;25891;-83
2022/07/09 08:05:39;;;;;;;3.62;1.70;;;;;;;20.20;69.02;101026.91;1769369;80;27488;-82
2022/07/09 08:08:05;;;;;;;3.05;1.80;;;;;;;20.12;70.46;101031.33;1759707;80;25905;-83
2022/07/09 08:10:31;;;;;;;4.08;1.42;;;;;;;20.21;69.02;101027.73;1760255;78;25837;-82
2022/07/09 08:12:58;;;;;;;4.47;1.82;;;;;;;20.33;68.95;101023.09;1765825;78;25794;-83
2022/07/09 08:15:24;;;;;;;4.12;2.08;;;;;;;20.39;68.76;101022.12;1765498;78;25300;-83
2022/07/09 08:17:51;;;;;;;4.80;2.27;;;;;;;20.45;68.01;101022.52;1761043;77;27431;-83
2022/07/09 08:20:17;;;;;;;3.90;1.30;;;;;;;20.55;67.67;101016.74;1691629;82;25868;-83
2022/07/09 08:22:43;;;;;;;5.53;1.82;;;;;;;20.54;65.40;101012.38;1706079;82;25810;-83
2022/07/09 08:25:13;;;;;;;2.35;1.22;;;;;;;20.54;65.45;101006.94;1732430;80;25736;-82
2022/07/09 08:27:40;;;;;;;4.90;1.62;;;;;;;20.56;66.36;100999.89;1734100;80;25793;-82
2022/07/09 08:30:07;;;;;;;3.72;1.42;;;;;;;20.58;66.32;100998.58;1733034;80;27460;-82
2022/07/09 08:32:34;;;;;;;3.58;1.50;;;;;;;20.59;66.96;100990.69;1710459;81;25821;-83
2022/07/09 08:35:00;;;;;;;3.67;1.32;;;;;;;20.61;64.71;100988.58;1696560;82;25873;-83
2022/07/09 08:37:26;;;;;;;6.50;1.42;;;;;;;20.56;65.42;100993.08;1698955;82;25718;-82
2022/07/09 08:39:53;;;;;;;2.50;1.30;;;;;;;20.49;64.24;100986.41;1697152;82;26521;-82
2022/07/09 08:42:19;;;;;;;7.03;1.32;;;;;;;20.37;64.27;100993.80;1708338;82;27452;-83
2022/07/09 08:44:47;;;;;;;2.37;1.50;;;;;;;20.37;64.19;100993.80;1712721;82;25808;-83
2022/07/09 08:47:16;;;;;;;2.52;1.90;;;;;;;20.37;64.63;100990.25;1712479;82;26283;-83
2022/07/09 08:49:46;;;;;;;4.35;1.62;;;;;;;20.39;64.97;100989.47;1711981;82;25823;-82
2022/07/09 08:52:13;;;;;;;7.33;2.42;;;;;;;20.40;64.23;100985.70;1709019;82;25851;-83
2022/07/09 08:54:42;;;;;;;2.62;1.27;;;;;;;20.46;64.60;100988.28;1712676;82;28405;-83
2022/07/09 08:57:09;;;;;;;5.33;1.52;;;;;;;20.58;64.19;100977.33;1708842;82;25702;-84
2022/07/09 08:59:35;;;;;;;7.25;1.62;;;;;;;20.66;62.38;100982.37;1708446;82;26486;-82
2022/07/09 09:05:15;;;;;;;2.80;1.23;;;;;;;20.74;62.70;100973.84;1780068;79;26909;-83
2022/07/09 09:07:42;;;;;;;3.50;1.37;;;;;;;20.98;60.84;100964.45;1794250;79;27446;-83
2022/07/09 09:10:24;;;;;;;6.45;1.87;;;;;;;21.08;60.85;100968.77;1773996;79;26471;-83
2022/07/09 09:12:58;;;;;;;3.17;1.00;;;;;;;21.26;59.55;100963.06;1775796;79;25290;-83
2022/07/09 09:15:25;;;;;;;4.97;1.20;;;;;;;21.36;59.33;100963.77;1771137;79;25789;-83
2022/07/09 09:17:52;;;;;;;5.20;1.72;;;;;;;21.46;58.00;100962.03;1775750;79;25283;-82
2022/07/09 09:20:19;;;;;;;5.92;1.02;;;;;;;21.56;59.99;100960.52;1767265;79;28447;-83
2022/07/09 09:22:53;;;;;;;3.62;1.20;;;;;;;21.71;58.98;100955.28;1767054;79;25828;-83
2022/07/09 09:25:21;;;;;;;4.30;1.10;;;;;;;21.79;57.62;100949.42;1764925;79;25729;-83
2022/07/09 09:27:56;;;;;;;1.75;1.00;;;;;;;21.86;57.78;100952.80;1768709;79;26227;-82
2022/07/09 09:30:25;;;;;;;4.33;1.60;;;;;;;21.89;56.76;100955.04;1773500;79;25781;-82
2022/07/09 09:33:01;;;;;;;4.85;1.40;;;;;;;21.91;55.20;100953.72;1776199;79;27465;-82
2022/07/09 09:35:32;;;;;;;5.45;1.17;;;;;;;21.84;55.11;100948.14;1770306;79;25759;-82
2022/07/09 09:37:59;;;;;;;5.30;1.10;;;;;;;21.74;54.24;100945.25;1767874;80;26582;-82
2022/07/09 09:40:27;;;;;;;5.35;1.32;;;;;;;21.69;54.64;100947.89;1760339;80;25804;-82
2022/07/09 09:42:54;;;;;;;6.83;1.92;;;;;;;21.65;54.67;100943.49;1768882;80;25786;-82
2022/07/09 09:45:21;;;;;;;4.92;1.02;;;;;;;21.68;54.00;100935.35;1764335;80;27535;-82
2022/07/09 09:47:49;;;;;;;3.67;1.15;;;;;;;21.71;53.32;100935.67;1761359;80;25325;-82
2022/07/09 09:50:25;;;;;;;3.80;1.20;;;;;;;21.84;53.96;100942.16;1764154;80;25340;-82
2022/07/09 09:52:54;;;;;;;2.80;1.15;;;;;;;21.83;53.41;100938.33;1762321;80;25322;-82
2022/07/09 09:55:22;;;;;;;1.20;0.80;;;;;;;21.82;54.82;100927.08;1758064;80;25919;-82
2022/07/09 09:57:51;;;;;;;3.75;1.00;;;;;;;21.86;54.88;100933.18;1758760;80;27511;-82
2022/07/09 10:00:17;;;;;;;2.72;0.95;;;;;;;21.97;55.57;100930.88;1765712;80;26427;-83
2022/07/09 10:02:46;;;;;;;5.20;1.10;;;;;;;22.02;53.54;100926.86;1774845;79;25457;-82
2022/07/09 10:05:17;;;;;;;3.08;1.25;;;;;;;21.97;53.88;100927.31;1755078;80;25995;-83
2022/07/09 10:07:44;;;;;;;3.98;1.22;;;;;;;21.96;53.75;100927.05;1756345;80;27198;-83
2022/07/09 10:10:19;;;;;;;4.40;1.25;;;;;;;21.92;54.94;100921.25;1765006;80;28372;-82
2022/07/09 10:12:46;;;;;;;4.12;1.62;;;;;;;21.92;55.22;100930.00;1777355;80;25803;-82
2022/07/09 10:15:26;;;;;;;2.90;1.10;;;;;;;21.82;52.42;100925.22;1765244;79;25429;-82
2022/07/09 10:17:53;;;;;;;8.87;1.40;;;;;;;21.73;51.68;100925.86;1766075;80;25921;-82
2022/07/09 10:20:33;;;;;;;3.02;1.20;;;;;;;21.73;54.02;100930.78;1754306;80;25928;-82
2022/07/09 10:23:03;;;;;;;2.85;1.00;;;;;;;21.76;52.27;100925.37;1759940;80;26853;-83
2022/07/09 10:25:34;;;;;;;2.67;0.80;;;;;;;21.75;51.14;100925.10;1769548;80;25818;-82
2022/07/09 10:28:01;;;;;;;5.70;1.05;;;;;;;21.77;52.88;100919.66;1753342;80;25927;-82
2022/07/09 10:30:35;;;;;;;2.37;1.02;;;;;;;21.90;52.14;100914.39;1777933;79;25977;-82
2022/07/09 10:33:08;;;;;;;1.82;0.82;;;;;;;21.90;52.23;100915.23;1809033;77;25877;-82
2022/07/09 10:35:47;;;;;;;4.65;0.78;;;;;;;21.86;52.07;100911.89;1810719;77;28271;-82
2022/07/09 10:38:15;;;;;;;3.67;0.90;;;;;;;21.75;52.22;100910.91;1814529;77;25844;-84
2022/07/09 10:40:48;;;;;;;5.08;1.00;;;;;;;21.68;52.17;100916.27;1811616;77;25971;-83
2022/07/09 10:43:15;;;;;;;0.95;0.65;;;;;;;21.68;52.63;100910.81;1814029;77;26375;-83
2022/07/09 10:45:45;;;;;;;1.87;0.80;;;;;;;21.73;53.20;100908.97;1821219;77;25838;-82
2022/07/09 10:48:14;;;;;;;2.33;0.93;;;;;;;21.91;54.02;100903.25;1810443;77;27917;-82
2022/07/09 10:50:44;;;;;;;2.50;1.30;;;;;;;22.07;53.50;100899.62;1812345;77;26214;-81
2022/07/09 10:53:12;;;;;;;3.27;1.00;;;;;;;22.17;53.07;100896.20;1809025;77;26086;-81
2022/07/09 10:55:44;;;;;;;2.37;1.15;;;;;;;22.30;52.79;100887.62;1811765;77;25791;-82
2022/07/09 10:58:20;;;;;;;2.35;1.00;;;;;;;22.44;52.30;100890.74;1815549;77;25813;-81
2022/07/09 11:00:58;;;;;;;3.55;1.00;;;;;;;22.44;51.48;100875.73;1813913;77;28421;-82
2022/07/09 11:03:27;;;;;;;4.25;1.10;;;;;;;22.40;51.93;100885.52;1812351;77;26159;-82
2022/07/09 11:05:53;;;;;;;3.70;0.85;;;;;;;22.36;51.89;100887.12;1822391;77;25817;-81
2022/07/09 11:08:20;;;;;;;1.67;1.00;;;;;;;22.34;51.96;100891.48;1811130;77;25887;-81
2022/07/09 11:10:46;;;;;;;3.42;1.10;;;;;;;22.28;50.61;100889.78;1812774;77;25780;-81
2022/07/09 11:13:12;;;;;;;1.50;0.98;;;;;;;22.19;50.40;100890.78;1809090;77;27442;-82
2022/07/09 11:15:39;;;;;;;2.33;0.90;;;;;;;22.11;50.45;100890.41;1812946;77;25794;-82
2022/07/09 11:18:13;;;;;;;5.05;0.85;;;;;;;22.06;50.91;100895.26;1811650;77;26444;-82
2022/07/09 11:20:44;;;;;;;3.70;1.20;;;;;;;22.02;51.32;100898.75;1789476;77;25798;-81
2022/07/09 11:23:13;;;;;;;3.92;1.10;;;;;;;21.94;51.40;100904.66;1815952;77;26735;-82
2022/07/09 11:25:39;;;;;;;1.62;0.93;;;;;;;21.90;51.51;100904.31;1819373;77;27473;-82
2022/07/09 11:28:06;;;;;;;1.50;1.20;;;;;;;21.87;51.64;100898.55;1813670;77;25858;-81